createdAt,value
2023-03-28T00:00:41.385Z,4.83
2023-03-28T00:03:14.612Z,4.60
2023-03-28T00:05:44.834Z,4.65
2023-03-28T00:08:12.811Z,4.40
2023-03-28T00:10:40.595Z,4.53
2023-03-28T00:13:08.367Z,4.75
2023-03-28T00:15:40.050Z,4.45
2023-03-28T00:18:08.325Z,4.30
2023-03-28T00:20:39.899Z,4.43
2023-03-28T00:23:08.088Z,4.38
2023-03-28T00:25:39.992Z,4.40
2023-03-28T00:28:07.830Z,4.18
2023-03-28T00:30:35.608Z,4.53
2023-03-28T00:33:05.047Z,4.40
2023-03-28T00:35:33.352Z,4.53
2023-03-28T00:38:03.142Z,4.95
2023-03-28T00:40:37.701Z,4.32
2023-03-28T00:43:06.005Z,4.40
2023-03-28T00:45:34.114Z,4.80
2023-03-28T00:48:14.041Z,5.03
2023-03-28T00:50:48.537Z,5.20
2023-03-28T00:53:21.032Z,4.90
2023-03-28T00:55:52.325Z,5.13
2023-03-28T00:58:25.196Z,4.60
2023-03-28T01:00:54.658Z,5.00
2023-03-28T01:03:27.650Z,5.65
2023-03-28T01:05:56.620Z,5.40
2023-03-28T01:08:29.948Z,5.85
2023-03-28T01:10:58.015Z,5.63
2023-03-28T01:13:28.882Z,6.10
2023-03-28T01:15:57.085Z,6.20
2023-03-28T01:18:25.416Z,5.87
2023-03-28T01:21:32.692Z,6.20
2023-03-28T01:24:24.755Z,6.10
2023-03-28T01:26:55.464Z,6.35
2023-03-28T01:30:02.941Z,6.75
2023-03-28T01:32:53.579Z,6.95
2023-03-28T01:36:02.509Z,6.70
2023-03-28T01:38:37.986Z,6.90
2023-03-28T01:41:13.409Z,7.50
2023-03-28T01:43:48.811Z,7.13
2023-03-28T01:46:19.957Z,7.78
2023-03-28T01:48:58.768Z,7.68
2023-03-28T01:51:42.137Z,7.97
2023-03-28T01:54:19.000Z,8.15
2023-03-28T01:56:52.575Z,7.85
2023-03-28T01:59:24.956Z,7.43
2023-03-28T02:01:59.382Z,8.60
2023-03-28T02:04:29.086Z,8.45
2023-03-28T02:06:58.147Z,8.07
2023-03-28T02:09:28.830Z,8.73
2023-03-28T02:12:00.604Z,9.07
2023-03-28T02:14:33.884Z,8.32
2023-03-28T02:17:05.645Z,8.52
2023-03-28T02:19:37.746Z,9.00
2023-03-28T02:22:15.291Z,8.55
2023-03-28T02:24:50.269Z,8.73
2023-03-28T02:27:18.744Z,8.88
2023-03-28T02:29:49.239Z,8.68
2023-03-28T02:32:17.388Z,9.10
2023-03-28T02:34:48.702Z,8.43
2023-03-28T02:37:27.828Z,8.93
2023-03-28T02:40:09.861Z,8.63
2023-03-28T02:43:10.462Z,8.17
2023-03-28T02:46:04.041Z,8.48
2023-03-28T02:49:08.996Z,8.77
2023-03-28T02:51:42.578Z,9.15
2023-03-28T02:54:25.227Z,8.63
2023-03-28T02:57:01.790Z,8.88
2023-03-28T02:59:34.881Z,8.82
2023-03-28T03:02:04.335Z,9.02
2023-03-28T03:04:32.429Z,9.05
2023-03-28T03:07:02.372Z,9.23
2023-03-28T03:09:30.206Z,8.90
2023-03-28T03:11:59.333Z,8.68
2023-03-28T03:14:27.157Z,8.95
2023-03-28T03:16:55.011Z,8.38
2023-03-28T03:19:22.768Z,9.15
2023-03-28T03:21:50.629Z,9.05
2023-03-28T03:24:18.410Z,8.82
2023-03-28T03:26:46.517Z,8.80
2023-03-28T03:29:16.240Z,9.43
2023-03-28T03:31:44.176Z,9.25
2023-03-28T03:34:12.055Z,8.65
2023-03-28T03:36:40.539Z,9.20
2023-03-28T03:39:08.337Z,8.73
2023-03-28T03:41:36.144Z,8.73
2023-03-28T03:44:04.011Z,9.20
2023-03-28T03:46:33.247Z,8.88
2023-03-28T03:49:01.038Z,8.55
2023-03-28T03:51:28.858Z,8.90
2023-03-28T03:53:58.778Z,9.05
2023-03-28T03:56:26.906Z,8.90
2023-03-28T03:58:54.716Z,8.73
2023-03-28T04:01:25.755Z,8.73
2023-03-28T04:03:54.922Z,9.10
2023-03-28T04:06:22.735Z,9.37
2023-03-28T04:08:51.288Z,8.63
2023-03-28T04:11:19.186Z,8.98
2023-03-28T04:13:46.951Z,9.18
2023-03-28T04:16:15.427Z,8.70
2023-03-28T04:18:45.547Z,9.30
2023-03-28T04:21:16.862Z,9.25
2023-03-28T04:23:48.237Z,8.82
2023-03-28T04:26:20.579Z,8.90
2023-03-28T04:28:48.824Z,9.32
2023-03-28T04:31:16.592Z,9.43
2023-03-28T04:33:45.267Z,9.52
2023-03-28T04:36:16.768Z,9.40
2023-03-28T04:38:45.835Z,9.90
2023-03-28T04:41:16.763Z,9.77
2023-03-28T04:43:44.975Z,9.73
2023-03-28T04:46:12.936Z,10.35
2023-03-28T04:48:40.896Z,10.35
2023-03-28T04:51:09.137Z,10.45
2023-03-28T04:53:38.381Z,9.98
2023-03-28T04:56:09.321Z,10.20
2023-03-28T04:58:37.626Z,10.20
2023-03-28T05:01:05.928Z,10.53
2023-03-28T05:03:33.885Z,10.37
2023-03-28T05:06:01.820Z,10.30
2023-03-28T05:08:29.661Z,9.75
2023-03-28T05:10:58.983Z,10.35
2023-03-28T05:13:27.073Z,10.37
2023-03-28T05:15:54.888Z,9.95
2023-03-28T05:18:22.725Z,10.82
2023-03-28T05:20:50.652Z,10.65
2023-03-28T05:23:18.462Z,10.30
2023-03-28T05:25:51.668Z,10.18
2023-03-28T05:28:21.566Z,10.15
2023-03-28T05:30:49.367Z,10.30
2023-03-28T05:33:17.307Z,10.20
2023-03-28T05:35:45.710Z,9.95
2023-03-28T05:38:14.218Z,9.95
2023-03-28T05:40:42.020Z,9.40
2023-03-28T05:43:09.780Z,9.35
2023-03-28T05:45:38.986Z,9.50
2023-03-28T05:48:07.363Z,10.10
2023-03-28T05:50:35.147Z,10.07
2023-03-28T05:53:02.971Z,9.52
2023-03-28T05:55:30.872Z,9.77
2023-03-28T05:57:59.424Z,9.57
2023-03-28T06:00:28.034Z,9.77
2023-03-28T06:02:58.061Z,9.27
2023-03-28T06:05:26.205Z,9.77
2023-03-28T06:07:54.133Z,8.82
2023-03-28T06:10:22.397Z,9.13
2023-03-28T06:12:50.148Z,8.95
2023-03-28T06:15:17.895Z,8.60
2023-03-28T06:17:45.784Z,8.73
2023-03-28T06:20:15.226Z,8.27
2023-03-28T06:22:43.043Z,7.97
2023-03-28T06:25:11.522Z,9.10
2023-03-28T06:27:39.402Z,8.75
2023-03-28T06:30:08.695Z,8.68
2023-03-28T06:32:36.641Z,8.75
2023-03-28T06:35:04.740Z,8.63
2023-03-28T06:37:33.956Z,8.15
2023-03-28T06:40:01.985Z,7.88
2023-03-28T06:42:29.970Z,8.18
2023-03-28T06:44:57.786Z,8.70
2023-03-28T06:47:25.748Z,7.70
2023-03-28T06:49:53.616Z,8.07
2023-03-28T06:52:23.082Z,7.82
2023-03-28T06:54:52.346Z,7.72
2023-03-28T06:57:20.270Z,7.68
2023-03-28T06:59:48.214Z,7.93
2023-03-28T07:02:16.370Z,7.03
2023-03-28T07:04:44.363Z,6.72
2023-03-28T07:07:12.104Z,7.75
2023-03-28T07:09:39.947Z,7.65
2023-03-28T07:12:09.235Z,6.90
2023-03-28T07:14:36.979Z,7.20
2023-03-28T07:17:04.813Z,7.67
2023-03-28T07:19:32.771Z,6.80
2023-03-28T07:22:00.546Z,6.57
2023-03-28T07:24:28.462Z,6.53
2023-03-28T07:27:07.951Z,6.80
2023-03-28T07:29:43.716Z,5.38
2023-03-28T07:32:11.484Z,5.45
2023-03-28T07:34:39.311Z,5.23
2023-03-28T07:37:07.327Z,5.20
2023-03-28T07:39:39.685Z,4.90
2023-03-28T07:42:11.610Z,4.67
2023-03-28T07:44:41.781Z,4.55
2023-03-28T07:47:12.195Z,4.60
2023-03-28T07:49:40.921Z,4.65
2023-03-28T07:52:08.906Z,4.53
2023-03-28T07:54:37.317Z,4.50
2023-03-28T07:57:05.556Z,4.50
2023-03-28T07:59:33.524Z,4.82
2023-03-28T08:02:01.584Z,4.13
2023-03-28T08:04:30.923Z,4.20
2023-03-28T08:07:00.118Z,4.80
2023-03-28T08:09:28.158Z,4.60
2023-03-28T08:11:55.916Z,4.53
2023-03-28T08:14:23.714Z,4.18
2023-03-28T08:16:52.175Z,4.15
2023-03-28T08:19:20.078Z,4.50
2023-03-28T08:21:49.188Z,4.05
2023-03-28T08:24:25.336Z,4.00
2023-03-28T08:26:56.926Z,4.03
2023-03-28T08:29:24.898Z,3.70
2023-03-28T08:31:53.075Z,3.78
2023-03-28T08:34:21.004Z,3.40
2023-03-28T08:36:50.199Z,3.90
2023-03-28T08:39:19.043Z,3.45
2023-03-28T08:42:13.829Z,3.42
2023-03-28T08:45:01.444Z,3.50
2023-03-28T08:47:31.835Z,3.22
2023-03-28T08:50:03.444Z,3.42
2023-03-28T08:52:32.883Z,3.30
2023-03-28T08:55:06.316Z,3.50
2023-03-28T08:57:36.763Z,3.15
2023-03-28T09:00:15.012Z,2.90
2023-03-28T09:02:44.029Z,3.00
2023-03-28T09:05:23.198Z,2.80
2023-03-28T09:08:00.506Z,2.88
2023-03-28T09:10:34.287Z,3.30
2023-03-28T09:13:12.480Z,2.90
2023-03-28T09:15:59.902Z,2.67
2023-03-28T09:18:48.376Z,2.90
2023-03-28T09:21:22.592Z,3.00
2023-03-28T09:24:06.189Z,3.10
2023-03-28T09:26:36.767Z,2.83
2023-03-28T09:29:08.898Z,2.70
2023-03-28T09:31:41.682Z,3.10
2023-03-28T09:34:17.872Z,2.80
2023-03-28T09:36:49.399Z,2.70
2023-03-28T09:39:27.929Z,3.00
2023-03-28T09:42:01.761Z,2.78
2023-03-28T09:44:43.679Z,2.65
2023-03-28T09:47:19.153Z,2.60
2023-03-28T09:49:46.935Z,2.10
2023-03-28T09:52:17.005Z,1.85
2023-03-28T09:54:47.167Z,2.28
2023-03-28T09:57:15.255Z,2.65
2023-03-28T09:59:43.253Z,2.30
2023-03-28T10:02:27.373Z,1.70
2023-03-28T10:04:55.308Z,1.90
2023-03-28T10:07:32.761Z,2.38
2023-03-28T10:10:17.134Z,2.00
2023-03-28T10:12:48.916Z,2.25
2023-03-28T10:15:36.194Z,1.93
2023-03-28T10:18:05.898Z,2.07
2023-03-28T10:20:37.519Z,2.28
2023-03-28T10:23:06.293Z,2.38
2023-03-28T10:25:38.958Z,2.30
2023-03-28T10:28:08.640Z,1.85
2023-03-28T10:45:51.260Z,2.13
2023-03-28T10:48:21.891Z,1.90
2023-03-28T10:50:51.756Z,2.08
2023-03-28T10:53:38.001Z,1.90
2023-03-28T10:56:18.150Z,1.77
2023-03-28T10:58:55.840Z,1.90
2023-03-28T11:01:33.101Z,2.38
2023-03-28T11:04:15.077Z,1.98
2023-03-28T11:06:47.643Z,1.90
2023-03-28T11:09:24.927Z,2.30
2023-03-28T11:12:03.871Z,2.20
2023-03-28T11:14:42.441Z,2.17
2023-03-28T11:17:19.243Z,2.60
2023-03-28T11:20:08.655Z,2.28
2023-03-28T11:22:55.488Z,2.40
2023-03-28T11:25:43.695Z,2.25
2023-03-28T11:28:22.264Z,2.00
2023-03-28T11:30:54.194Z,2.13
2023-03-28T11:33:29.965Z,2.17
2023-03-28T11:36:02.170Z,2.17
2023-03-28T11:38:34.197Z,2.20
2023-03-28T11:41:05.389Z,2.00
2023-03-28T11:43:41.560Z,2.40
2023-03-28T11:46:13.877Z,2.15
2023-03-28T11:48:49.924Z,2.42
2023-03-28T11:51:21.555Z,2.40
2023-03-28T11:53:54.756Z,2.42
2023-03-28T11:56:34.607Z,2.27
2023-03-28T11:59:07.772Z,2.30
2023-03-28T12:01:40.255Z,2.30
2023-03-28T12:04:15.348Z,2.47
2023-03-28T12:06:56.071Z,2.63
2023-03-28T12:09:33.508Z,2.42
2023-03-28T12:12:09.509Z,2.35
2023-03-28T12:14:47.932Z,2.60
2023-03-28T12:17:22.059Z,2.40
2023-03-28T12:19:51.361Z,2.33
2023-03-28T12:22:23.551Z,2.53
2023-03-28T12:24:58.936Z,2.40
2023-03-28T12:27:37.048Z,2.53
2023-03-28T12:30:13.546Z,2.78
2023-03-28T12:32:48.213Z,2.33
2023-03-28T12:35:22.633Z,2.60
2023-03-28T12:38:00.363Z,2.42
2023-03-28T12:40:35.115Z,2.60
2023-03-28T12:43:04.939Z,2.53
2023-03-28T12:45:34.428Z,2.60
2023-03-28T12:48:06.363Z,2.63
2023-03-28T12:50:44.597Z,2.47
2023-03-28T12:53:13.965Z,2.40
2023-03-28T12:55:47.698Z,2.50
2023-03-28T12:58:23.700Z,2.40
2023-03-28T13:01:00.584Z,2.40
2023-03-28T13:03:38.110Z,2.40
2023-03-28T13:06:19.734Z,2.35
2023-03-28T13:09:04.952Z,2.38
2023-03-28T13:11:40.877Z,2.30
2023-03-28T13:14:29.584Z,2.70
2023-03-28T13:16:58.860Z,2.67
2023-03-28T13:19:45.822Z,2.60
2023-03-28T13:22:31.460Z,2.45
2023-03-28T13:25:27.078Z,2.80
2023-03-28T13:27:56.978Z,2.67
2023-03-28T13:30:27.052Z,2.40
2023-03-28T13:32:57.132Z,2.50
2023-03-28T13:35:43.439Z,2.63
2023-03-28T13:38:22.841Z,2.65
2023-03-28T13:40:54.626Z,2.65
2023-03-28T13:43:27.589Z,2.87
2023-03-28T13:45:59.219Z,2.80
2023-03-28T13:48:33.393Z,2.78
2023-03-28T13:51:06.572Z,2.65
2023-03-28T13:53:46.960Z,2.60
2023-03-28T13:56:24.575Z,2.70
2023-03-28T13:58:55.250Z,2.63
2023-03-28T14:01:25.795Z,2.90
2023-03-28T14:03:55.136Z,2.60
2023-03-28T14:06:24.700Z,2.60
2023-03-28T14:08:56.012Z,2.60
2023-03-28T14:11:30.190Z,2.95
2023-03-28T14:14:06.650Z,2.40
2023-03-28T14:16:36.297Z,3.28
2023-03-28T14:19:06.425Z,2.90
2023-03-28T14:21:34.445Z,2.88
2023-03-28T14:24:06.826Z,2.80
2023-03-28T14:26:37.375Z,4.47
2023-03-28T14:29:11.319Z,3.28
2023-03-28T14:31:41.528Z,2.90
2023-03-28T14:34:18.842Z,3.28
2023-03-28T14:37:01.254Z,3.03
2023-03-28T14:39:32.267Z,2.60
2023-03-28T14:42:03.822Z,3.10
2023-03-28T14:44:36.222Z,2.70
2023-03-28T14:47:04.662Z,2.88
2023-03-28T14:49:33.075Z,2.53
2023-03-28T14:52:03.479Z,2.50
2023-03-28T14:54:35.339Z,2.67
2023-03-28T14:57:05.712Z,2.40
2023-03-28T14:59:37.510Z,2.90
2023-03-28T15:02:06.556Z,2.83
2023-03-28T15:04:35.799Z,2.50
2023-03-28T15:07:04.595Z,2.88
2023-03-28T15:09:36.062Z,2.55
2023-03-28T15:12:07.844Z,2.88
2023-03-28T15:14:41.118Z,2.60
2023-03-28T15:17:16.941Z,3.08
2023-03-28T15:19:47.464Z,3.03
2023-03-28T15:22:22.287Z,2.80
2023-03-28T15:24:51.842Z,2.67
2023-03-28T15:27:24.941Z,2.88
2023-03-28T15:29:52.916Z,2.50
2023-03-28T15:32:21.218Z,2.80
2023-03-28T15:34:57.343Z,2.97
2023-03-28T15:37:27.049Z,2.90
2023-03-28T15:40:22.247Z,2.70
2023-03-28T15:42:51.092Z,2.97
2023-03-28T15:45:37.245Z,2.80
2023-03-28T15:48:05.475Z,3.30
2023-03-28T15:50:36.731Z,2.60
2023-03-28T15:53:07.364Z,2.75
2023-03-28T15:55:36.825Z,3.00
2023-03-28T15:58:05.896Z,3.13
2023-03-28T16:00:46.129Z,2.85
2023-03-28T16:03:34.208Z,2.80
2023-03-28T16:06:26.828Z,3.10
2023-03-28T16:09:15.488Z,3.70
2023-03-28T16:11:45.543Z,3.28
2023-03-28T16:14:16.960Z,3.00
2023-03-28T16:16:44.821Z,3.00
2023-03-28T16:19:18.882Z,3.28
2023-03-28T16:21:47.049Z,3.08
2023-03-28T16:24:15.262Z,3.20
2023-03-28T16:26:44.403Z,3.00
2023-03-28T16:29:12.371Z,3.00
2023-03-28T16:31:40.305Z,3.08
2023-03-28T16:34:10.020Z,3.03
2023-03-28T16:36:38.226Z,3.10
2023-03-28T16:39:07.905Z,3.13
2023-03-28T16:41:35.773Z,3.00
2023-03-28T16:44:05.574Z,3.40
2023-03-28T16:46:33.877Z,3.33
2023-03-28T16:49:01.725Z,3.30
2023-03-28T16:51:29.535Z,3.00
2023-03-28T16:53:57.287Z,3.20
2023-03-28T16:56:27.202Z,3.10
2023-03-28T16:58:55.260Z,3.13
2023-03-28T17:01:24.468Z,3.03
2023-03-28T17:03:53.479Z,3.08
2023-03-28T17:06:22.141Z,2.92
2023-03-28T17:08:52.978Z,2.85
2023-03-28T17:11:21.766Z,2.65
2023-03-28T17:13:52.466Z,2.47
2023-03-28T17:16:20.365Z,2.60
2023-03-28T17:18:49.636Z,2.40
2023-03-28T17:21:18.701Z,2.60
2023-03-28T17:23:48.092Z,2.85
2023-03-28T17:26:16.588Z,2.80
2023-03-28T17:28:44.724Z,3.35
2023-03-28T17:31:15.440Z,2.90
2023-03-28T17:33:43.931Z,2.78
2023-03-28T17:36:21.557Z,2.70
2023-03-28T17:38:50.305Z,2.42
2023-03-28T17:41:18.472Z,2.67
2023-03-28T17:43:46.608Z,2.70
2023-03-28T17:46:14.502Z,2.50
2023-03-28T17:48:42.994Z,2.80
2023-03-28T17:51:11.968Z,3.60
2023-03-28T17:53:42.816Z,2.80
2023-03-28T17:56:12.072Z,2.80
2023-03-28T17:58:40.434Z,2.80
2023-03-28T18:01:10.555Z,2.60
2023-03-28T18:03:38.999Z,2.88
2023-03-28T18:06:07.980Z,3.00
2023-03-28T18:08:37.469Z,2.95
2023-03-28T18:11:08.713Z,3.00
2023-03-28T18:13:37.693Z,3.20
2023-03-28T18:16:09.189Z,2.97
2023-03-28T18:18:38.278Z,2.70
2023-03-28T18:21:08.004Z,2.83
2023-03-28T18:23:36.851Z,3.10
2023-03-28T18:26:06.564Z,3.13
2023-03-28T18:28:34.640Z,2.90
2023-03-28T18:31:09.074Z,3.00
2023-03-28T18:33:37.053Z,3.30
2023-03-28T18:36:05.700Z,3.40
2023-03-28T18:38:38.118Z,3.20
2023-03-28T18:41:08.134Z,3.22
2023-03-28T18:43:35.948Z,3.58
2023-03-28T18:46:04.820Z,3.30
2023-03-28T18:48:33.417Z,3.45
2023-03-28T18:51:06.092Z,3.30
2023-03-28T18:53:34.729Z,3.53
2023-03-28T18:56:03.313Z,3.42
2023-03-28T18:58:32.945Z,3.40
2023-03-28T19:01:03.249Z,3.55
2023-03-28T19:03:36.192Z,3.20
2023-03-28T19:06:04.392Z,3.50
2023-03-28T19:08:32.844Z,3.50
2023-03-28T19:11:02.414Z,3.60
2023-03-28T19:13:31.702Z,4.05
2023-03-28T19:16:00.093Z,4.35
2023-03-28T19:18:28.203Z,4.47
2023-03-28T19:20:58.047Z,4.00
2023-03-28T19:23:27.353Z,3.97
2023-03-28T19:25:55.528Z,4.00
2023-03-28T19:28:23.576Z,4.18
2023-03-28T19:30:58.782Z,4.13
2023-03-28T19:33:28.544Z,4.40
2023-03-28T19:35:56.527Z,4.30
2023-03-28T19:38:25.743Z,4.60
2023-03-28T19:40:58.298Z,4.13
2023-03-28T19:43:26.336Z,4.50
2023-03-28T19:45:54.384Z,4.28
2023-03-28T19:48:24.128Z,4.50
2023-03-28T19:50:52.018Z,4.25
2023-03-28T19:53:19.940Z,4.32
2023-03-28T19:55:52.906Z,3.93
2023-03-28T19:58:20.696Z,4.00
2023-03-28T20:00:49.249Z,4.32
2023-03-28T20:03:17.803Z,4.00
2023-03-28T20:05:48.623Z,4.10
2023-03-28T20:08:18.259Z,4.00
2023-03-28T20:10:48.375Z,3.92
2023-03-28T20:13:17.168Z,4.07
2023-03-28T20:15:46.874Z,3.90
2023-03-28T20:18:19.561Z,4.07
2023-03-28T20:20:51.896Z,3.75
2023-03-28T20:23:23.316Z,3.90
2023-03-28T20:25:53.000Z,3.90
2023-03-28T20:28:24.321Z,3.90
2023-03-28T20:30:53.285Z,3.47
2023-03-28T20:33:21.408Z,3.90
2023-03-28T20:35:53.950Z,3.90
2023-03-28T20:38:21.990Z,3.77
2023-03-28T20:40:49.949Z,3.90
2023-03-28T20:43:20.129Z,3.88
2023-03-28T20:45:53.469Z,3.80
2023-03-28T20:48:25.761Z,4.00
2023-03-28T20:50:54.914Z,4.47
2023-03-28T20:53:22.689Z,4.20
2023-03-28T20:56:00.167Z,4.10
2023-03-28T20:58:28.332Z,4.00
2023-03-28T21:00:57.197Z,4.07
2023-03-28T21:03:45.534Z,4.18
2023-03-28T21:06:15.697Z,3.70
2023-03-28T21:08:45.899Z,4.10
2023-03-28T21:11:14.546Z,3.75
2023-03-28T21:13:42.535Z,4.00
2023-03-28T21:16:11.802Z,3.80
2023-03-28T21:18:40.071Z,3.73
2023-03-28T21:21:08.399Z,3.95
2023-03-28T21:23:38.887Z,3.83
2023-03-28T21:26:07.951Z,4.00
2023-03-28T21:28:36.530Z,3.60
2023-03-28T21:31:08.947Z,4.00
2023-03-28T21:33:37.532Z,3.72
2023-03-28T21:36:07.154Z,3.63
2023-03-28T21:38:36.718Z,3.80
2023-03-28T21:41:05.691Z,4.10
2023-03-28T21:43:33.747Z,4.07
2023-03-28T21:46:01.640Z,3.83
2023-03-28T21:48:30.071Z,3.70
2023-03-28T21:51:00.480Z,3.47
2023-03-28T21:53:30.720Z,3.47
2023-03-28T21:56:00.217Z,3.53
2023-03-28T21:58:30.728Z,3.50
2023-03-28T22:00:58.742Z,3.10
2023-03-28T22:03:27.460Z,3.08
2023-03-28T22:05:55.898Z,3.10
2023-03-28T22:08:24.439Z,3.03
2023-03-28T22:10:54.422Z,2.80
2023-03-28T22:13:24.116Z,3.03
2023-03-28T22:15:52.937Z,3.00
2023-03-28T22:18:25.643Z,2.90
2023-03-28T22:20:53.904Z,3.00
2023-03-28T22:23:22.586Z,3.00
2023-03-28T22:25:50.738Z,2.95
2023-03-28T22:28:18.745Z,2.63
2023-03-28T22:30:48.068Z,2.80
2023-03-28T22:33:16.483Z,3.00
2023-03-28T22:35:44.362Z,2.92
2023-03-28T22:38:12.146Z,3.27
2023-03-28T22:40:40.206Z,2.50
2023-03-28T22:43:08.071Z,2.55
2023-03-28T22:45:36.974Z,2.47
2023-03-28T22:48:14.048Z,2.60
2023-03-28T22:50:41.988Z,2.83
2023-03-28T22:53:09.833Z,2.42
2023-03-28T22:55:38.194Z,2.70
2023-03-28T22:58:06.052Z,2.70
2023-03-28T23:00:33.848Z,3.05
2023-03-28T23:03:02.777Z,3.13
2023-03-28T23:05:32.364Z,2.90
2023-03-28T23:08:00.236Z,3.15
2023-03-28T23:10:28.831Z,3.25
2023-03-28T23:12:56.594Z,3.08
2023-03-28T23:15:24.686Z,3.22
2023-03-28T23:17:52.674Z,3.38
2023-03-28T23:20:20.787Z,3.03
2023-03-28T23:22:50.103Z,2.90
2023-03-28T23:25:19.425Z,2.80
2023-03-28T23:27:47.852Z,2.90
2023-03-28T23:30:17.095Z,2.70
2023-03-28T23:32:45.353Z,2.92
2023-03-28T23:35:13.256Z,2.80
2023-03-28T23:37:41.422Z,2.50
2023-03-28T23:40:14.769Z,2.60
2023-03-28T23:42:44.278Z,2.73
2023-03-28T23:45:13.814Z,2.50
2023-03-28T23:47:42.020Z,2.67
2023-03-28T23:50:11.012Z,2.25
2023-03-28T23:52:39.715Z,2.40
2023-03-28T23:55:08.759Z,2.60
2023-03-28T23:57:38.214Z,2.60
